M I D A S
Marine Information and Data Acquisition System
Tripno 462 of the Zeeleeuw from 2003-04-15 06:17:03 to 2003-04-15 13:00:05
Back to CruiseResearch ActivitiesStationsMapUnderway DataData graphs

EquipmentUnitsComment
TimeDGPSUTC
LatitudeDGPSDM.mWGS84
LongitudeDGPSDM.mWGS84
HeadingGyrodeg 
SOGDGPSknotsSpeed over ground
COGDGPSdegCourse over ground
DepthEcho soundermeters200 kHz
Missing or incorrect values are displayed as -999
Navigation data collected by the RV Zeeleeuw from 2003-04-15 06:17:03 to 2003-04-15 13:00:05
                                                                                    Next 1000 lines
Time Latitude Longitude Heading SOG COG Depth
2003-04-15 06:17:11 51°13.6 2°56.1 109 0.2 291 6.5
2003-04-15 06:17:17 51°13.6 2°56.1 108.8 0.3 295 6.5
2003-04-15 06:17:21 51°13.6 2°56.1 108.7 0.7 292 6.5
2003-04-15 06:17:27 51°13.6 2°56.1 108.7 1.1 292 6.5
2003-04-15 06:17:31 51°13.6 2°56.09 108.9 1.6 291 6.5
2003-04-15 06:17:37 51°13.6 2°56.09 109.5 1.9 291 6.8
2003-04-15 06:17:41 51°13.6 2°56.08 109.7 2.4 291 -999
2003-04-15 06:17:47 51°13.6 2°56.08 109.8 2.7 290 -999
2003-04-15 06:17:53 51°13.61 2°56.07 109.8 3 290 -999
2003-04-15 06:17:57 51°13.61 2°56.06 109.5 3.2 290 -999
2003-04-15 06:18:01 51°13.61 2°56.06 109.2 3.5 289 -999
2003-04-15 06:18:07 51°13.61 2°56.05 108.8 3.7 288 -999
2003-04-15 06:18:11 51°13.61 2°56.04 108.4 4 287 -999
2003-04-15 06:18:17 51°13.61 2°56.03 108.1 4.1 286 -999
2003-04-15 06:18:21 51°13.62 2°56.02 108.2 4.4 285 -999
2003-04-15 06:18:27 51°13.62 2°56.01 109 4.5 285 -999
2003-04-15 06:18:31 51°13.62 2°56 110 4.6 285 -999
2003-04-15 06:18:37 51°13.62 2°55.99 111 4.6 286 -999
2003-04-15 06:18:41 51°13.62 2°55.98 112.1 4.6 286 -999
2003-04-15 06:18:47 51°13.62 2°55.97 113.2 4.7 287 -999
2003-04-15 06:18:51 51°13.63 2°55.96 114.4 4.8 288 -999
2003-04-15 06:18:57 51°13.63 2°55.95 115.8 4.8 289 -999
2003-04-15 06:19:01 51°13.63 2°55.94 116.9 4.9 291 -999
2003-04-15 06:19:07 51°13.63 2°55.93 118.1 4.9 292 -999
2003-04-15 06:19:11 51°13.64 2°55.92 119.1 5 293 -999
2003-04-15 06:19:17 51°13.64 2°55.91 120.2 5 294 -999
2003-04-15 06:19:21 51°13.64 2°55.9 121.2 5 295 -999
2003-04-15 06:19:27 51°13.65 2°55.89 122.2 5 296 -999
2003-04-15 06:19:31 51°13.65 2°55.88 123.2 5 297 -999
2003-04-15 06:19:37 51°13.65 2°55.87 124.1 5.1 298 -999
2003-04-15 06:19:41 51°13.66 2°55.86 125.1 5.2 300 -999
2003-04-15 06:19:47 51°13.66 2°55.85 125.9 5.1 301 -999
2003-04-15 06:19:51 51°13.66 2°55.85 126.8 4.8 302 -999
2003-04-15 06:19:57 51°13.67 2°55.84 127.7 4.5 303 -999
2003-04-15 06:20:01 51°13.67 2°55.83 128.1 4.1 304 7.9
2003-04-15 06:20:07 51°13.67 2°55.82 128.2 3.7 304 8
2003-04-15 06:20:13 51°13.68 2°55.82 128.2 3.2 304 8.1
2003-04-15 06:20:17 51°13.68 2°55.81 127.6 2.9 303 8.1
2003-04-15 06:20:21 51°13.68 2°55.81 125.7 2.5 303 8.2
2003-04-15 06:20:27 51°13.68 2°55.8 124.2 2.3 303 -999
2003-04-15 06:20:31 51°13.68 2°55.8 122.5 2.1 302 -999
2003-04-15 06:20:37 51°13.68 2°55.8 120.9 1.9 300 -999
2003-04-15 06:20:41 51°13.68 2°55.8 119 1.6 300 -999
2003-04-15 06:20:47 51°13.68 2°55.79 116.9 1.4 299 -999
2003-04-15 06:20:51 51°13.69 2°55.79 114.4 1 300 -999
2003-04-15 06:20:57 51°13.69 2°55.79 111.5 0.8 302 -999
2003-04-15 06:21:01 51°13.69 2°55.79 108.2 0.4 314 -999
2003-04-15 06:21:07 51°13.69 2°55.79 104.5 0.3 338 -999
2003-04-15 06:21:11 51°13.69 2°55.79 100.5 0.3 41 -999
2003-04-15 06:21:17 51°13.69 2°55.79 96 0.4 59 -999
2003-04-15 06:21:23 51°13.69 2°55.79 92.1 0.5 59 -999
2003-04-15 06:21:27 51°13.69 2°55.79 89.3 0.5 56 -999
2003-04-15 06:21:31 51°13.69 2°55.79 86.9 0.4 43 -999
2003-04-15 06:21:37 51°13.69 2°55.79 84.7 0.4 32 -999
2003-04-15 06:21:41 51°13.69 2°55.79 82.7 0.3 11 -999
2003-04-15 06:21:47 51°13.69 2°55.79 80.9 0.3 354 -999
2003-04-15 06:21:51 51°13.69 2°55.79 79.6 0.3 326 -999
2003-04-15 06:21:57 51°13.69 2°55.79 78.3 0.4 310 -999
2003-04-15 06:22:01 51°13.69 2°55.79 77.1 0.6 293 -999
2003-04-15 06:22:07 51°13.69 2°55.79 75.9 0.7 285 -999
2003-04-15 06:22:11 51°13.69 2°55.79 74.7 0.9 278 -999
2003-04-15 06:22:17 51°13.69 2°55.78 73.3 1 274 -999
2003-04-15 06:22:21 51°13.69 2°55.78 71.9 1.2 269 -999
2003-04-15 06:22:27 51°13.69 2°55.78 70.4 1.3 266 -999
2003-04-15 06:22:33 51°13.69 2°55.77 68.9 1.4 263 -999
2003-04-15 06:22:37 51°13.69 2°55.77 67.4 1.4 261 -999
2003-04-15 06:22:41 51°13.69 2°55.77 65.7 1.5 258 -999
2003-04-15 06:22:47 51°13.69 2°55.77 64.1 1.5 256 -999
2003-04-15 06:22:51 51°13.69 2°55.76 62.4 1.5 253 -999
2003-04-15 06:22:57 51°13.69 2°55.76 60.8 1.5 251 -999
2003-04-15 06:23:01 51°13.69 2°55.76 59.4 1.4 250 -999
2003-04-15 06:23:07 51°13.69 2°55.75 58 1.4 249 -999
2003-04-15 06:23:11 51°13.69 2°55.75 56.6 1.3 248 -999
2003-04-15 06:23:17 51°13.69 2°55.75 55.1 1.2 249 -999
2003-04-15 06:23:21 51°13.68 2°55.75 53.3 1 251 -999
2003-04-15 06:23:27 51°13.68 2°55.75 50.3 0.8 256 -999
2003-04-15 06:23:31 51°13.68 2°55.75 47.1 0.5 267 -999
2003-04-15 06:23:37 51°13.69 2°55.74 44.1 0.4 279 -999
2003-04-15 06:23:41 51°13.69 2°55.74 41.4 0.4 305 5.1
2003-04-15 06:23:47 51°13.69 2°55.74 38.9 0.4 322 -999
2003-04-15 06:23:51 51°13.69 2°55.74 35.5 0.5 340 5.3
2003-04-15 06:23:57 51°13.69 2°55.74 31.9 0.5 346 10.5
2003-04-15 06:24:01 51°13.69 2°55.74 28.3 0.7 352 -999
2003-04-15 06:24:07 51°13.69 2°55.74 24.4 0.7 353 5.2
2003-04-15 06:24:11 51°13.69 2°55.74 19.5 0.9 354 -999
2003-04-15 06:24:17 51°13.69 2°55.74 14.3 1 353 -999
2003-04-15 06:24:21 51°13.69 2°55.74 10.8 1.1 351 10.6
2003-04-15 06:24:27 51°13.7 2°55.74 5 1.2 349 -999
2003-04-15 06:24:31 51°13.7 2°55.74   1.4 345 -999
2003-04-15 06:24:37 51°13.7 2°55.74 355.1 1.5 342 -999
2003-04-15 06:24:41 51°13.7 2°55.74 350.5 1.7 339 -999
2003-04-15 06:24:47 51°13.7 2°55.73 346.9 1.9 337 -999
2003-04-15 06:24:51 51°13.71 2°55.73 343.9 2.1 335 10.5
2003-04-15 06:24:57 51°13.71 2°55.73 342.2 2.2 334 10.2
2003-04-15 06:25:01 51°13.71 2°55.73 340.8 2.4 332 9.9
2003-04-15 06:25:07 51°13.72 2°55.73 339.8 2.6 332 9.6
2003-04-15 06:25:11 51°13.72 2°55.72 338.9 2.8 332 9.6
2003-04-15 06:25:17 51°13.72 2°55.72 338.5 3 332 9
2003-04-15 06:25:21 51°13.73 2°55.72 338.3 3.4 332 8.6
2003-04-15 06:25:27 51°13.73 2°55.71 338.3 3.6 332 8.5
2003-04-15 06:25:33 51°13.74 2°55.71 338.2 3.5 333 8.5
2003-04-15 06:25:37 51°13.74 2°55.7 338.1 3.7 333 8.5
2003-04-15 06:25:41 51°13.75 2°55.7 337.9 4.1 333 8.5
2003-04-15 06:25:47 51°13.75 2°55.69 337.8 4.4 333 8.5
2003-04-15 06:25:51 51°13.76 2°55.69 337.5 4.6 333 8.5
2003-04-15 06:25:57 51°13.77 2°55.68 337.5 4.8 332 8.4
2003-04-15 06:26:03 51°13.77 2°55.68 337.4 4.9 333 8.7
2003-04-15 06:26:07 51°13.78 2°55.67 337.4 5 333 8.9
2003-04-15 06:26:11 51°13.78 2°55.67 337.4 5.2 333 8.8
2003-04-15 06:26:17 51°13.79 2°55.66 337.5 5.2 333 8.9
2003-04-15 06:26:21 51°13.8 2°55.66 337.8 5.4 334 8.9
2003-04-15 06:26:27 51°13.81 2°55.65 338.1 5.4 334 -999
2003-04-15 06:26:31 51°13.81 2°55.65 338.3 5.5 334 8.9
2003-04-15 06:26:37 51°13.82 2°55.64 338.5 5.6 334 9.1
2003-04-15 06:26:41 51°13.83 2°55.64 338.5 5.8 334 9.1
2003-04-15 06:26:47 51°13.83 2°55.63 338.5 5.8 334 9
2003-04-15 06:26:51 51°13.84 2°55.63 338.5 6 334 9
2003-04-15 06:26:57 51°13.85 2°55.62 338.8 6 334 9
2003-04-15 06:27:01 51°13.86 2°55.62 339.2 6.1 334 8.9
2003-04-15 06:27:07 51°13.86 2°55.61 339.4 6.2 334 -999
2003-04-15 06:27:11 51°13.87 2°55.6 339.4 6.3 334 8.9
2003-04-15 06:27:17 51°13.88 2°55.6 339.4 6.4 334 9
2003-04-15 06:27:21 51°13.89 2°55.59 339.6 6.5 334 8.8
2003-04-15 06:27:27 51°13.9 2°55.58 340 6.6 335 8.9
2003-04-15 06:27:31 51°13.9 2°55.58 340 6.7 335 9
2003-04-15 06:27:37 51°13.91 2°55.57 339.8 6.8 335 9
2003-04-15 06:27:43 51°13.93 2°55.56 339.8 6.9 335 -999
2003-04-15 06:27:47 51°13.93 2°55.56 340.2 7 335 9
2003-04-15 06:27:51 51°13.94 2°55.55 340.5 7 336 8.8
2003-04-15 06:27:57 51°13.95 2°55.55 340.9 7.1 336 8.5
2003-04-15 06:28:01 51°13.96 2°55.54 340.9 7.1 336 8.8
2003-04-15 06:28:07 51°13.97 2°55.53 340.9 7.2 336 8.9
2003-04-15 06:28:11 51°13.98 2°55.53 340.7 7.2 336 8.9
2003-04-15 06:28:17 51°13.99 2°55.52 340.7 7.2 336 8.9
2003-04-15 06:28:23 51°14 2°55.51 340.7 7.2 336 8.8
2003-04-15 06:28:27 51°14.01 2°55.51 340.7 7.3 336 8.8
2003-04-15 06:28:31 51°14.01 2°55.5 340.5 7.3 336 8.9
2003-04-15 06:28:37 51°14.02 2°55.49 340.2 7.3 335 8.8
2003-04-15 06:28:41 51°14.03 2°55.49 339.7 7.3 335 8.8
2003-04-15 06:28:47 51°14.04 2°55.48 339.3 7.3 335 8.8
2003-04-15 06:28:53 51°14.05 2°55.47 339.2 7.3 335 8.7
2003-04-15 06:28:57 51°14.06 2°55.47 339.3 7.3 335 8.6
2003-04-15 06:29:01 51°14.07 2°55.46 339.4 7.4 334 8.4
2003-04-15 06:29:07 51°14.08 2°55.45 339.2 7.4 334 8.3
2003-04-15 06:29:11 51°14.09 2°55.45 338.6 7.5 334 8.3
2003-04-15 06:29:17 51°14.1 2°55.44 338.2 7.5 333 -999
2003-04-15 06:29:23 51°14.11 2°55.43 338.2 7.6 333 8.9
2003-04-15 06:29:27 51°14.12 2°55.42 338.1 7.6 333 -999
2003-04-15 06:29:31 51°14.12 2°55.41 337.9 7.6 333 -999
2003-04-15 06:29:37 51°14.14 2°55.41 337.8 7.6 333 -999
2003-04-15 06:29:41 51°14.14 2°55.4 337.2 7.7 332 -999
2003-04-15 06:29:47 51°14.15 2°55.39 336.2 7.7 332 -999
2003-04-15 06:29:51 51°14.16 2°55.38 335.6 7.7 331 -999
2003-04-15 06:29:57 51°14.17 2°55.37 335 7.7 330 -999
2003-04-15 06:30:01 51°14.18 2°55.37 334.2 7.7 329 -999
2003-04-15 06:30:07 51°14.19 2°55.35 333.1 7.7 329 -999
2003-04-15 06:30:11 51°14.2 2°55.35 332.3 7.7 327 -999
2003-04-15 06:30:17 51°14.21 2°55.34 331.1 7.7 326 -999
2003-04-15 06:30:21 51°14.22 2°55.33 330.2 7.7 325 -999
2003-04-15 06:30:27 51°14.23 2°55.32 328.7 7.7 324 9.1
2003-04-15 06:30:33 51°14.24 2°55.3 327.5 7.7 323 9.3
2003-04-15 06:30:37 51°14.24 2°55.29 325.9 7.7 321 -999
2003-04-15 06:30:41 51°14.25 2°55.28 324.2 7.7 319 9.3
2003-04-15 06:30:47 51°14.26 2°55.27 322.8 7.7 318 9.4
2003-04-15 06:30:51 51°14.26 2°55.26 321.1 7.7 316 9.4
2003-04-15 06:30:57 51°14.27 2°55.25 319.7 7.7 315 9.3
2003-04-15 06:31:01 51°14.28 2°55.24 318.1 7.7 313 9.3
2003-04-15 06:31:07 51°14.29 2°55.22 316.9 7.7 312 9.2
2003-04-15 06:31:11 51°14.29 2°55.21 316.1 7.7 311 9.3
2003-04-15 06:31:17 51°14.3 2°55.19 315 7.7 310 9.2
2003-04-15 06:31:21 51°14.31 2°55.18 313.6 7.7 309 9.2
2003-04-15 06:31:27 51°14.31 2°55.17 312.8 7.7 308 9.2
2003-04-15 06:31:31 51°14.32 2°55.16 311.7 7.8 307 9.2
2003-04-15 06:31:37 51°14.33 2°55.14 311.5 7.8 306 9.2
2003-04-15 06:31:43 51°14.33 2°55.12 311 7.8 306 9.2
2003-04-15 06:31:47 51°14.34 2°55.11 310.2 7.8 305 8.7
2003-04-15 06:31:51 51°14.34 2°55.1 309 7.8 304 8.8
2003-04-15 06:31:57 51°14.35 2°55.08 308.4 7.8 303 9
2003-04-15 06:32:01 51°14.36 2°55.07 307.7 7.8 303 9.4
2003-04-15 06:32:07 51°14.36 2°55.05 307.3 7.8 302 9.5
2003-04-15 06:32:11 51°14.37 2°55.04 306.9 7.8 301 9.5
2003-04-15 06:32:17 51°14.37 2°55.02 306.2 7.8 301 9.3
2003-04-15 06:32:21 51°14.38 2°55.01 305.3 7.8 299 9.4
2003-04-15 06:32:27 51°14.38 2°54.99 304.4 7.9 298 9.3
2003-04-15 06:32:31 51°14.39 2°54.98 303.2 8.2 296 9.4
2003-04-15 06:32:37 51°14.39 2°54.96 302.4 8.5 296 9.5
2003-04-15 06:32:41 51°14.4 2°54.94 301.6 9 294 9.5
2003-04-15 06:32:47 51°14.4 2°54.92 301.2 9.3 294 9.5
2003-04-15 06:32:53 51°14.41 2°54.9 300.9 9.7 294 9.5
2003-04-15 06:32:57 51°14.42 2°54.88 300.8 10 294 9.6
2003-04-15 06:33:01 51°14.42 2°54.86 301.4 10.2 295 9.7
2003-04-15 06:33:07 51°14.43 2°54.84 302.2 10.4 295 9.5
2003-04-15 06:33:11 51°14.43 2°54.82 304.3 10.6 298 9.6
2003-04-15 06:33:17 51°14.44 2°54.8 307.3 10.6 300 9.6
2003-04-15 06:33:21 51°14.45 2°54.78 310.6 10.8 302 9.5
2003-04-15 06:33:27 51°14.46 2°54.76 312.1 10.8 304 9.5
2003-04-15 06:33:31 51°14.47 2°54.74 312.8 10.9 304 9.5
2003-04-15 06:33:37 51°14.48 2°54.72 312.9 11 304 9.6
2003-04-15 06:33:41 51°14.48 2°54.7 312.8 11.1 303 9.5
2003-04-15 06:33:47 51°14.49 2°54.68 312 11.2 303 9.5
2003-04-15 06:33:51 51°14.5 2°54.66 311.8 11.4 302 9.5
2003-04-15 06:33:57 51°14.51 2°54.63 311.5 11.5 302 9.3
2003-04-15 06:34:01 51°14.52 2°54.62 311.4 11.7 302 9.2
2003-04-15 06:34:07 51°14.53 2°54.59 311.6 11.8 302 9.2
2003-04-15 06:34:11 51°14.54 2°54.57 311.9 12 303 9.3
2003-04-15 06:34:17 51°14.55 2°54.54 311.9 12.2 303 9.2
2003-04-15 06:34:21 51°14.55 2°54.52 311.8 12.4 302 9.3
2003-04-15 06:34:27 51°14.57 2°54.5 311.6 12.5 303 9.2
2003-04-15 06:34:33 51°14.58 2°54.47 311.9 12.6 303 9.2
2003-04-15 06:34:37 51°14.58 2°54.45 312 12.7 303 9.2
2003-04-15 06:34:41 51°14.59 2°54.43 312 12.7 303 9
2003-04-15 06:34:47 51°14.6 2°54.4 312 12.7 303 9.1
2003-04-15 06:34:51 51°14.61 2°54.38 312 12.8 303 9
2003-04-15 06:34:57 51°14.62 2°54.35 311.8 12.8 303 9
2003-04-15 06:35:01 51°14.63 2°54.34 311.7 12.8 303 9.2
2003-04-15 06:35:07 51°14.64 2°54.31 311.8 12.9 303 9.1
2003-04-15 06:35:11 51°14.65 2°54.29 312 12.9 303 9
2003-04-15 06:35:17 51°14.66 2°54.26 312 12.9 303 9
2003-04-15 06:35:21 51°14.67 2°54.24 312.1 12.9 303 9
2003-04-15 06:35:27 51°14.68 2°54.21 312 12.9 303 9
2003-04-15 06:35:31 51°14.69 2°54.19 312 12.9 303 9
2003-04-15 06:35:37 51°14.7 2°54.16 312.1 12.9 303 9.1
2003-04-15 06:35:41 51°14.71 2°54.14 312.1 13 303 9
2003-04-15 06:35:47 51°14.72 2°54.11 311.9 13 302 9
2003-04-15 06:35:51 51°14.73 2°54.09 311.6 13 302 8.9
2003-04-15 06:35:57 51°14.74 2°54.07 311.4 13 302 8.9
2003-04-15 06:36:01 51°14.75 2°54.05 311.5 13 302 8.8
2003-04-15 06:36:07 51°14.76 2°54.02 312 13 303 8.8
2003-04-15 06:36:11 51°14.77 2°54 312.5 12.9 303 8.7
2003-04-15 06:36:17 51°14.78 2°53.97 312.7 12.9 304 8.7
2003-04-15 06:36:21 51°14.79 2°53.95 312.8 12.9 303 8.7
2003-04-15 06:36:27 51°14.8 2°53.92 312.4 12.9 303 8.7
2003-04-15 06:36:31 51°14.81 2°53.9 312 12.9 302 8.8
2003-04-15 06:36:37 51°14.82 2°53.87 311.8 12.9 302 8.7
2003-04-15 06:36:41 51°14.82 2°53.85 311.7 12.9 302 8.7
2003-04-15 06:36:47 51°14.84 2°53.82 311.9 12.9 302 8.6
2003-04-15 06:36:51 51°14.84 2°53.81 312.1 12.9 302 8.6
2003-04-15 06:36:57 51°14.85 2°53.78 312.1 12.9 302 8.6
2003-04-15 06:37:01 51°14.86 2°53.76 312.2 12.9 302 8.7
2003-04-15 06:37:07 51°14.87 2°53.73 312.1 12.9 302 8.6
2003-04-15 06:37:11 51°14.88 2°53.71 311.7 13 301 8.7
2003-04-15 06:37:17 51°14.89 2°53.68 311.6 13 301 8.7
2003-04-15 06:37:21 51°14.9 2°53.66 311.6 13 301 8.7
2003-04-15 06:37:27 51°14.91 2°53.63 311.9 13 301 8.7
2003-04-15 06:37:31 51°14.92 2°53.61 312.1 13 301 8.8
2003-04-15 06:37:37 51°14.93 2°53.58 312.5 13 302 8.8
2003-04-15 06:37:41 51°14.94 2°53.56 312.8 13 302 8.9
2003-04-15 06:37:47 51°14.95 2°53.53 313.1 13 302 8.9
2003-04-15 06:37:51 51°14.96 2°53.51 313 13 302 8.8
2003-04-15 06:37:57 51°14.97 2°53.48 312.8 13.1 302 8.9
2003-04-15 06:38:01 51°14.98 2°53.46 312.3 13.1 302 8.9
2003-04-15 06:38:07 51°14.99 2°53.43 312.3 13 302 8.8
2003-04-15 06:38:11 51°15 2°53.42 312.2 13 301 8.9
2003-04-15 06:38:17 51°15.01 2°53.39 311.6 13 301 8.9
2003-04-15 06:38:21 51°15.01 2°53.36 310.5 13.1 300 8.9
2003-04-15 06:38:27 51°15.02 2°53.33 309.9 13.1 299 8.9
2003-04-15 06:38:31 51°15.03 2°53.31 309.1 13.1 298 8.9
2003-04-15 06:38:37 51°15.04 2°53.28 309 13.1 298 9.1
2003-04-15 06:38:43 51°15.05 2°53.25 309.1 13.1 299 9
2003-04-15 06:38:47 51°15.06 2°53.23 309.4 13.1 299 9.1
2003-04-15 06:38:51 51°15.07 2°53.21 309.4 13.1 299 9.2
2003-04-15 06:38:57 51°15.08 2°53.18 309.2 13.1 299 9.3
2003-04-15 06:39:01 51°15.08 2°53.16 309.2 13.1 299 9.2
2003-04-15 06:39:07 51°15.09 2°53.13 309.3 13.1 299 9.1
2003-04-15 06:39:11 51°15.1 2°53.11 308.1 13.2 298 9.2
2003-04-15 06:39:17 51°15.11 2°53.08 307.3 13.2 297 9.2
2003-04-15 06:39:21 51°15.12 2°53.06 306.7 13.3 296 9.1
2003-04-15 06:39:27 51°15.13 2°53.03 306.2 13.3 296 9.2
2003-04-15 06:39:31 51°15.13 2°53.01 305.7 13.5 295 9.3
2003-04-15 06:39:37 51°15.14 2°52.97 305.5 13.6 295 9.4
2003-04-15 06:39:41 51°15.15 2°52.95 305.2 13.8 295 9.5
2003-04-15 06:39:47 51°15.16 2°52.92 305.5 13.9 295 9.5
2003-04-15 06:39:53 51°15.17 2°52.88 305.6 14 296 9.5
2003-04-15 06:39:57 51°15.18 2°52.86 305.8 14 296 9.5
2003-04-15 06:40:01 51°15.18 2°52.84 305.9 14.1 296 9.6
2003-04-15 06:40:07 51°15.19 2°52.8 306 14.2 296 9.7
2003-04-15 06:40:11 51°15.2 2°52.78 305.9 14.3 296 9.8
2003-04-15 06:40:17 51°15.21 2°52.75 305.8 14.4 296 9.9
2003-04-15 06:40:23 51°15.22 2°52.71 305.8 14.4 296 10
2003-04-15 06:40:27 51°15.23 2°52.69 306 14.4 296 10.1
2003-04-15 06:40:31 51°15.24 2°52.67 306.2 14.4 296 10.1
2003-04-15 06:40:37 51°15.25 2°52.63 306.2 14.5 296 10.2
2003-04-15 06:40:41 51°15.25 2°52.61 306.2 14.5 296 10.2
2003-04-15 06:40:47 51°15.26 2°52.57 304.3 14.5 294 10.3
2003-04-15 06:40:51 51°15.27 2°52.55 302 14.6 292 10.3
2003-04-15 06:40:57 51°15.28 2°52.51 300.8 14.6 291 10.3
2003-04-15 06:41:01 51°15.28 2°52.49 299 14.7 289 10.5
2003-04-15 06:41:07 51°15.29 2°52.45 298.1 14.7 288 10.5
2003-04-15 06:41:11 51°15.29 2°52.43 297 14.8 288 10.5
2003-04-15 06:41:17 51°15.3 2°52.39 296.6 14.8 287 10.5
2003-04-15 06:41:21 51°15.31 2°52.36 295.7 14.8 286 10.6
2003-04-15 06:41:27 51°15.31 2°52.33 295.4 14.9 286 10.7
2003-04-15 06:41:33 51°15.32 2°52.29 293.2 14.9 284 10.7
2003-04-15 06:41:37 51°15.32 2°52.26 292.6 14.9 283 10.8
2003-04-15 06:41:41 51°15.32 2°52.24 291 15 282 10.8
2003-04-15 06:41:47 51°15.33 2°52.2 290.6 15 281 10.9
2003-04-15 06:41:51 51°15.33 2°52.17 289.5 15 280 10.9
2003-04-15 06:41:57 51°15.34 2°52.13 289.2 15 280 10.9
2003-04-15 06:42:01 51°15.34 2°52.1 287.7 15.1 278 11
2003-04-15 06:42:07 51°15.34 2°52.06 285.7 15.1 277 11.1
2003-04-15 06:42:11 51°15.34 2°52.04 284.2 15.2 275 11.2
2003-04-15 06:42:17 51°15.34 2°52 282.6 15.2 274 11.2
2003-04-15 06:42:21 51°15.34 2°51.97 282.1 15.2 273 11.1
2003-04-15 06:42:27 51°15.35 2°51.93 280.8 15.3 273 11.2
2003-04-15 06:42:31 51°15.35 2°51.9 280.4 15.3 272 11.1
2003-04-15 06:42:37 51°15.35 2°51.86 279.7 15.3 272 11.2
2003-04-15 06:42:41 51°15.35 2°51.84 279.3 15.3 271 11.3
2003-04-15 06:42:47 51°15.35 2°51.79 279.3 15.3 271 11.4
2003-04-15 06:42:51 51°15.35 2°51.77 278.9 15.3 271 11.5
2003-04-15 06:42:57 51°15.35 2°51.73 277.4 15.4 270 11.5
2003-04-15 06:43:01 51°15.35 2°51.7 276.5 15.4 269 11.5
2003-04-15 06:43:07 51°15.35 2°51.66 275.9 15.4 268 11.6
2003-04-15 06:43:11 51°15.35 2°51.63 275.2 15.4 268 11.5
2003-04-15 06:43:17 51°15.34 2°51.59 274.7 15.4 267 11.5
2003-04-15 06:43:23 51°15.34 2°51.55 274.4 15.5 267 11.6
2003-04-15 06:43:27 51°15.34 2°51.52 274.3 15.5 267 11.5
2003-04-15 06:43:31 51°15.34 2°51.49 274.4 15.5 267 11.6
2003-04-15 06:43:37 51°15.34 2°51.45 274.7 15.5 267 11.7
2003-04-15 06:43:41 51°15.34 2°51.43 274.7 15.5 267 11.7
2003-04-15 06:43:47 51°15.34 2°51.39 274.4 15.5 267 11.7
2003-04-15 06:43:51 51°15.34 2°51.36 274.3 15.5 267 11.7
2003-04-15 06:43:57 51°15.34 2°51.32 274.8 15.5 267 11.7
2003-04-15 06:44:01 51°15.34 2°51.29 274.7 15.5 267 11.7
2003-04-15 06:44:07 51°15.33 2°51.25 274.7 15.5 267 11.7
2003-04-15 06:44:11 51°15.33 2°51.22 274.6 15.5 267 11.8
2003-04-15 06:44:17 51°15.33 2°51.18 274.3 15.5 267 11.9
2003-04-15 06:44:21 51°15.33 2°51.15 274.8 15.5 267 11.8
2003-04-15 06:44:27 51°15.33 2°51.11 274.6 15.5 267 11.9
2003-04-15 06:44:33 51°15.33 2°51.07 274.6 15.5 266 11.9
2003-04-15 06:44:37 51°15.33 2°51.04 272.6 15.5 265 11.9
2003-04-15 06:44:41 51°15.32 2°51.02 271.6 15.5 264 11.9
2003-04-15 06:44:47 51°15.32 2°50.98 270.2 15.5 263 12
2003-04-15 06:44:51 51°15.32 2°50.95 269.5 15.5 262 12
2003-04-15 06:44:57 51°15.31 2°50.91 268.9 15.5 262 12
2003-04-15 06:45:03 51°15.31 2°50.87 268.1 15.5 261 11.9
2003-04-15 06:45:07 51°15.31 2°50.84 268.2 15.5 261 12
2003-04-15 06:45:11 51°15.3 2°50.81 267.8 15.5 261 12
2003-04-15 06:45:17 51°15.3 2°50.77 267.7 15.5 261 11.9
2003-04-15 06:45:21 51°15.3 2°50.74 267.4 15.5 261 11.9
2003-04-15 06:45:27 51°15.29 2°50.7 267.7 15.5 261 12
2003-04-15 06:45:31 51°15.29 2°50.68 267.7 15.5 261 12
2003-04-15 06:45:37 51°15.29 2°50.64 267.4 15.5 261 12
2003-04-15 06:45:43 51°15.28 2°50.6 267.8 15.5 261 12
2003-04-15 06:45:47 51°15.28 2°50.57 268 15.5 261 12
2003-04-15 06:45:51 51°15.28 2°50.54 268 15.5 261 12
2003-04-15 06:45:57 51°15.27 2°50.5 268.1 15.5 261 12
2003-04-15 06:46:01 51°15.27 2°50.47 268.4 15.5 261 12
2003-04-15 06:46:07 51°15.27 2°50.43 268 15.5 261 12
2003-04-15 06:46:13 51°15.26 2°50.39 268.2 15.5 261 12
2003-04-15 06:46:17 51°15.26 2°50.37 267.8 15.5 261 12
2003-04-15 06:46:21 51°15.26 2°50.34 268 15.5 261 12
2003-04-15 06:46:27 51°15.25 2°50.3 268.2 15.5 261 12
2003-04-15 06:46:31 51°15.25 2°50.27 268.3 15.5 261 12
2003-04-15 06:46:37 51°15.25 2°50.23 268.2 15.5 261 12
2003-04-15 06:46:43 51°15.24 2°50.19 268.3 15.5 262 12.1
2003-04-15 06:46:47 51°15.24 2°50.16 268 15.5 261 12
2003-04-15 06:46:53 51°15.24 2°50.12 268.5 15.5 262 12.1
2003-04-15 06:46:57 51°15.24 2°50.09 268.4 15.5 262 12.1
2003-04-15 06:47:01 51°15.23 2°50.07 268.3 15.5 262 12
2003-04-15 06:47:07 51°15.23 2°50.03 268.3 15.5 261 12.2
2003-04-15 06:47:11 51°15.23 2°50 266.8 15.5 260 12.1
2003-04-15 06:47:17 51°15.22 2°49.96 265.8 15.5 259 12.1
2003-04-15 06:47:23 51°15.22 2°49.92 265.5 15.5 259 12.1
2003-04-15 06:47:27 51°15.21 2°49.89 264.9 15.5 258 12
2003-04-15 06:47:31 51°15.21 2°49.86 264.3 15.5 258 12
2003-04-15 06:47:37 51°15.2 2°49.82 264.7 15.5 258 12.1
2003-04-15 06:47:41 51°15.2 2°49.8 264.2 15.5 258 12.1
2003-04-15 06:47:47 51°15.2 2°49.76 264.1 15.5 258 12.1
2003-04-15 06:47:53 51°15.19 2°49.72 264.7 15.4 258 12.1
2003-04-15 06:47:57 51°15.19 2°49.69 264.4 15.4 258 12.1
2003-04-15 06:48:03 51°15.18 2°49.65 264.6 15.4 258 12.1
2003-04-15 06:48:07 51°15.18 2°49.62 264.1 15.4 258 12.1
2003-04-15 06:48:11 51°15.17 2°49.6 264.2 15.4 258 12.1
2003-04-15 06:48:17 51°15.17 2°49.56 264.5 15.4 258 12.1
2003-04-15 06:48:21 51°15.17 2°49.53 264.1 15.4 258 12.1
2003-04-15 06:48:27 51°15.16 2°49.49 264.5 15.4 258 12.1
2003-04-15 06:48:33 51°15.16 2°49.45 264.9 15.4 259 12.1
2003-04-15 06:48:37 51°15.15 2°49.42 264.8 15.4 258 12.1
2003-04-15 06:48:41 51°15.15 2°49.4 264.6 15.4 259 12.1
2003-04-15 06:48:47 51°15.14 2°49.36 264.9 15.4 259 12.1
2003-04-15 06:48:51 51°15.14 2°49.33 264.7 15.4 259 12.1
2003-04-15 06:48:57 51°15.14 2°49.29 264.8 15.4 259 12.2
2003-04-15 06:49:01 51°15.13 2°49.26 264.6 15.4 259 12.1
2003-04-15 06:49:07 51°15.13 2°49.22 264.9 15.4 259 12.1
2003-04-15 06:49:11 51°15.12 2°49.2 264.8 15.4 259 12.1
2003-04-15 06:49:17 51°15.12 2°49.16 264.7 15.4 259 12.1
2003-04-15 06:49:21 51°15.12 2°49.13 264.8 15.4 259 12.2
2003-04-15 06:49:27 51°15.11 2°49.09 264.7 15.4 259 12.2
2003-04-15 06:49:31 51°15.11 2°49.06 264.6 15.4 259 12.1
2003-04-15 06:49:37 51°15.1 2°49.02 264.6 15.5 259 12.1
2003-04-15 06:49:41 51°15.1 2°49 264.7 15.4 259 12.2
2003-04-15 06:49:47 51°15.09 2°48.96 264.4 15.4 259 12.1
2003-04-15 06:49:51 51°15.09 2°48.93 264.4 15.5 258 12.1
2003-04-15 06:49:57 51°15.09 2°48.89 264.2 15.5 259 12
2003-04-15 06:50:01 51°15.08 2°48.86 264.9 15.5 259 12
2003-04-15 06:50:07 51°15.08 2°48.82 264.7 15.5 259 12
2003-04-15 06:50:11 51°15.07 2°48.79 264.9 15.5 259 12
2003-04-15 06:50:17 51°15.07 2°48.75 264.9 15.5 259 12
2003-04-15 06:50:23 51°15.06 2°48.71 265.3 15.5 259 12
2003-04-15 06:50:27 51°15.06 2°48.69 265.1 15.4 259 12.1
2003-04-15 06:50:31 51°15.06 2°48.66 264.7 15.4 259 12
2003-04-15 06:50:37 51°15.05 2°48.62 264.9 15.4 259 12.1
2003-04-15 06:50:41 51°15.05 2°48.59 265.1 15.5 259 12.1
2003-04-15 06:50:47 51°15.04 2°48.55 265.2 15.4 259 12
2003-04-15 06:50:51 51°15.04 2°48.53 264.9 15.4 259 12.1
2003-04-15 06:50:57 51°15.04 2°48.49 264.9 15.4 259 12.1
2003-04-15 06:51:01 51°15.03 2°48.46 264.4 15.4 259 12.1
2003-04-15 06:51:07 51°15.03 2°48.42 264.5 15.4 259 12.2
2003-04-15 06:51:11 51°15.02 2°48.39 264.7 15.4 259 12.2
2003-04-15 06:51:17 51°15.02 2°48.35 264.9 15.4 259 12.2
2003-04-15 06:51:21 51°15.02 2°48.33 265 15.4 259 12.2
2003-04-15 06:51:27 51°15.01 2°48.29 264.9 15.4 259 12.2
2003-04-15 06:51:31 51°15.01 2°48.26 264.8 15.4 259 12.2
2003-04-15 06:51:37 51°15 2°48.22 265.1 15.4 259 12.2
2003-04-15 06:51:41 51°15 2°48.19 264.8 15.3 259 12.3
2003-04-15 06:51:47 51°15 2°48.15 264.4 15.3 259 12.2
2003-04-15 06:51:51 51°14.99 2°48.13 264.8 15.3 259 12.3
2003-04-15 06:51:57 51°14.99 2°48.09 264.9 15.3 259 12.4
2003-04-15 06:52:03 51°14.98 2°48.05 265 15.3 259 12.3
2003-04-15 06:52:07 51°14.98 2°48.02 264.9 15.3 259 12.3
2003-04-15 06:52:11 51°14.98 2°47.99 264.9 15.2 259 12.3
2003-04-15 06:52:17 51°14.97 2°47.95 265.1 15.2 259 12.3
2003-04-15 06:52:21 51°14.97 2°47.93 264.9 15.2 259 12.3
2003-04-15 06:52:27 51°14.96 2°47.89 265.2 15.2 259 12.3
2003-04-15 06:52:31 51°14.96 2°47.86 265.1 15.2 259 12.3
2003-04-15 06:52:37 51°14.96 2°47.82 264.9 15.2 259 12.4
2003-04-15 06:52:41 51°14.95 2°47.8 265.2 15.2 259 12.4
2003-04-15 06:52:47 51°14.95 2°47.76 265.2 15.2 259 12.3
2003-04-15 06:52:51 51°14.94 2°47.73 265.1 15.2 259 12.3
2003-04-15 06:52:57 51°14.94 2°47.69 264.9 15.2 259 12.3
2003-04-15 06:53:01 51°14.94 2°47.66 265.3 15.2 259 12.3
2003-04-15 06:53:07 51°14.93 2°47.62 265.1 15.2 259 12.3
2003-04-15 06:53:13 51°14.93 2°47.58 265.2 15.2 259 12.3
2003-04-15 06:53:17 51°14.92 2°47.56 264.9 15.2 259 12.3
2003-04-15 06:53:21 51°14.92 2°47.53 265.1 15.1 259 12.2
2003-04-15 06:53:27 51°14.92 2°47.49 265.1 15.1 259 12.1
2003-04-15 06:53:31 51°14.91 2°47.47 265.3 15.1 259 12.1
2003-04-15 06:53:37 51°14.91 2°47.43 265.1 15.1 259 12.1
2003-04-15 06:53:43 51°14.9 2°47.39 264.8 15.1 259 11.9
2003-04-15 06:53:47 51°14.9 2°47.36 265.2 15.1 259 11.9
2003-04-15 06:53:53 51°14.9 2°47.32 265.4 15 259 11.7
2003-04-15 06:53:57 51°14.89 2°47.3 265.3 15 259 11.6
2003-04-15 06:54:01 51°14.89 2°47.27 265 15 259 11.5
2003-04-15 06:54:07 51°14.89 2°47.23 264.8 15 259 11.2
2003-04-15 06:54:11 51°14.88 2°47.21 264.9 15 259 11
2003-04-15 06:54:17 51°14.88 2°47.17 265 15 259 11.2
2003-04-15 06:54:21 51°14.87 2°47.14 264.9 14.9 259 11
2003-04-15 06:54:27 51°14.87 2°47.1 265 14.9 259 11
2003-04-15 06:54:31 51°14.87 2°47.08 265.3 14.9 260 10.9
2003-04-15 06:54:37 51°14.86 2°47.04 265.2 14.9 259 10.6
2003-04-15 06:54:41 51°14.86 2°47.01 265 14.9 259 10.2
2003-04-15 06:54:47 51°14.85 2°46.97 265.2 14.9 259 10.5
2003-04-15 06:54:53 51°14.85 2°46.93 265 14.8 259 10.2
2003-04-15 06:54:57 51°14.85 2°46.91 265 14.8 259 10.2
2003-04-15 06:55:01 51°14.84 2°46.88 264.9 14.8 259 10
2003-04-15 06:55:07 51°14.84 2°46.84 264.9 14.7 259 9.7
2003-04-15 06:55:11 51°14.84 2°46.82 265.4 14.7 259 9.7
2003-04-15 06:55:17 51°14.83 2°46.78 264.9 14.7 259 9.6
2003-04-15 06:55:23 51°14.83 2°46.74 264.9 14.7 259 9.4
2003-04-15 06:55:27 51°14.82 2°46.72 264.9 14.6 259 9.2
2003-04-15 06:55:31 51°14.82 2°46.69 264.8 14.6 259 9
2003-04-15 06:55:37 51°14.82 2°46.65 265.1 14.6 259 8.8
2003-04-15 06:55:41 51°14.81 2°46.63 265.1 14.5 260 8.9
2003-04-15 06:55:47 51°14.81 2°46.59 265.5 14.5 260 8.8
2003-04-15 06:55:51 51°14.81 2°46.57 265 14.5 260 8.4
2003-04-15 06:55:57 51°14.8 2°46.53 265.3 14.5 259 8.6
2003-04-15 06:56:01 51°14.8 2°46.5 264.9 14.5 259 8.5
2003-04-15 06:56:07 51°14.79 2°46.46 264.5 14.4 259 8.4
2003-04-15 06:56:11 51°14.79 2°46.44 265.1 14.4 259 8.4
2003-04-15 06:56:17 51°14.79 2°46.4 265.4 14.4 260 8.1
2003-04-15 06:56:21 51°14.78 2°46.38 265.4 14.4 260 8.2
2003-04-15 06:56:27 51°14.78 2°46.34 265.1 14.3 260 8.2
2003-04-15 06:56:33 51°14.78 2°46.3 265.4 14.3 260 8
2003-04-15 06:56:37 51°14.77 2°46.28 265.9 14.3 260 8.1
2003-04-15 06:56:41 51°14.77 2°46.25 266.6 14.3 261 8.1
2003-04-15 06:56:47 51°14.77 2°46.22 266.5 14.3 261 8.1
2003-04-15 06:56:51 51°14.76 2°46.19 267.3 14.3 261 8.1
2003-04-15 06:56:57 51°14.76 2°46.15 267.4 14.3 262 8
2003-04-15 06:57:03 51°14.76 2°46.12 267.9 14.3 262 8
2003-04-15 06:57:07 51°14.76 2°46.09 268 14.3 262 8
2003-04-15 06:57:11 51°14.75 2°46.07 268.6 14.3 263 8
2003-04-15 06:57:17 51°14.75 2°46.03 268.5 14.3 263 8.1
2003-04-15 06:57:21 51°14.75 2°46 268.5 14.3 262 8.1
2003-04-15 06:57:27 51°14.75 2°45.96 268.2 14.3 262 8.1
2003-04-15 06:57:31 51°14.74 2°45.94 268 14.4 262 8.2
2003-04-15 06:57:37 51°14.74 2°45.9 267.8 14.4 262 8.2
2003-04-15 06:57:41 51°14.74 2°45.88 267.8 14.4 262 8.3
2003-04-15 06:57:47 51°14.73 2°45.84 267.8 14.4 262 8.4
2003-04-15 06:57:53 51°14.73 2°45.8 267.7 14.5 262 8.5
2003-04-15 06:57:57 51°14.73 2°45.77 267.5 14.6 262 8.6
2003-04-15 06:58:01 51°14.73 2°45.75 267.6 14.7 262 8.8
2003-04-15 06:58:07 51°14.72 2°45.71 267.3 14.7 261 8.9
2003-04-15 06:58:13 51°14.72 2°45.67 266.7 14.8 261 9
2003-04-15 06:58:17 51°14.72 2°45.65 266.8 14.8 261 9.2
2003-04-15 06:58:23 51°14.71 2°45.61 265.8 14.9 260 9.3
2003-04-15 06:58:27 51°14.71 2°45.58 265.9 14.9 260 9.4
2003-04-15 06:58:31 51°14.7 2°45.55 264.9 15 260 9.6
2003-04-15 06:58:37 51°14.7 2°45.51 265.2 15.1 259 9.7
2003-04-15 06:58:41 51°14.7 2°45.49 264.9 15.1 259 9.8
2003-04-15 06:58:47 51°14.69 2°45.45 264.5 15.2 259 10
2003-04-15 06:58:51 51°14.69 2°45.42 264.8 15.2 259 10.2
2003-04-15 06:58:57 51°14.68 2°45.38 264.1 15.3 259 10.3
2003-04-15 06:59:03 51°14.68 2°45.34 264.5 15.3 259 10.4
2003-04-15 06:59:07 51°14.68 2°45.32 264.5 15.3 259 10.4
2003-04-15 06:59:11 51°14.67 2°45.29 264.7 15.3 259 10.6
2003-04-15 06:59:17 51°14.67 2°45.25 264.6 15.3 259 10.8
2003-04-15 06:59:21 51°14.66 2°45.22 264.7 15.3 259 10.9
2003-04-15 06:59:27 51°14.66 2°45.18 264.6 15.3 259 11
2003-04-15 06:59:33 51°14.65 2°45.14 264.6 15.3 259 11.1
2003-04-15 06:59:37 51°14.65 2°45.12 264.3 15.3 259 11.2
2003-04-15 06:59:41 51°14.65 2°45.09 264.5 15.3 259 11.4
2003-04-15 06:59:47 51°14.64 2°45.05 263.9 15.4 258 11.5
2003-04-15 06:59:51 51°14.64 2°45.02 264.4 15.4 259 11.6
2003-04-15 06:59:57 51°14.63 2°44.98 264.3 15.4 259 11.8
2003-04-15 07:00:03 51°14.63 2°44.94 264.3 15.4 259 12
2003-04-15 07:00:07 51°14.63 2°44.92 264.3 15.4 259 12.1
2003-04-15 07:00:11 51°14.62 2°44.89 264.5 15.4 258 12.3
2003-04-15 07:00:17 51°14.62 2°44.85 264.2 15.4 259 12.5
2003-04-15 07:00:21 51°14.61 2°44.82 264.1 15.5 259 12.6
2003-04-15 07:00:27 51°14.61 2°44.78 264.8 15.5 259 12.8
2003-04-15 07:00:31 51°14.61 2°44.76 264.9 15.5 259 12.9
2003-04-15 07:00:37 51°14.6 2°44.72 265.2 15.5 259 13.1
2003-04-15 07:00:43 51°14.6 2°44.68 264.8 15.5 259 13.2
2003-04-15 07:00:47 51°14.59 2°44.65 264.8 15.5 259 13.2
2003-04-15 07:00:51 51°14.59 2°44.62 264.4 15.5 258 13.3
2003-04-15 07:00:57 51°14.58 2°44.58 264.1 15.5 259 13.4
2003-04-15 07:01:01 51°14.58 2°44.56 264.1 15.5 258 13.6
2003-04-15 07:01:07 51°14.58 2°44.52 264.3 15.5 259 13.7
2003-04-15 07:01:13 51°14.57 2°44.47 264.9 15.5 259 13.8
2003-04-15 07:01:17 51°14.57 2°44.45 264.4 15.4 259 13.8
2003-04-15 07:01:23 51°14.56 2°44.41 264.3 15.5 258 13.9
2003-04-15 07:01:27 51°14.56 2°44.38 264.7 15.5 259 14
2003-04-15 07:01:31 51°14.56 2°44.35 264.4 15.5 259 14.1
2003-04-15 07:01:37 51°14.55 2°44.31 265.1 15.5 259 14.2
2003-04-15 07:01:41 51°14.55 2°44.29 264.9 15.5 259 14.3
2003-04-15 07:01:47 51°14.54 2°44.25 264.9 15.5 259 14.4
2003-04-15 07:01:53 51°14.54 2°44.21 264.6 15.4 258 14.5
2003-04-15 07:01:57 51°14.53 2°44.18 264.4 15.4 258 14.5
2003-04-15 07:02:01 51°14.53 2°44.15 264.9 15.5 258 14.7
2003-04-15 07:02:07 51°14.53 2°44.11 264.7 15.5 258 14.8
2003-04-15 07:02:11 51°14.52 2°44.09 264.5 15.5 258 15
2003-04-15 07:02:17 51°14.52 2°44.05 264.8 15.5 259 15
2003-04-15 07:02:23 51°14.51 2°44.01 265.3 15.6 259 15.2
2003-04-15 07:02:27 51°14.51 2°43.98 264.9 15.5 259 15.3
2003-04-15 07:02:31 51°14.5 2°43.95 264.7 15.5 259 15.4
2003-04-15 07:02:37 51°14.5 2°43.91 264.7 15.5 258 15.2
2003-04-15 07:02:41 51°14.5 2°43.88 265.2 15.5 259 15.5
2003-04-15 07:02:47 51°14.49 2°43.84 264.6 15.5 258 15.6
2003-04-15 07:02:51 51°14.49 2°43.82 264.5 15.5 258 15.5
2003-04-15 07:02:57 51°14.48 2°43.78 264.8 15.5 258 15.6
2003-04-15 07:03:01 51°14.48 2°43.75 264.8 15.5 258 15.7
2003-04-15 07:03:07 51°14.47 2°43.71 265.1 15.5 259 15.7
2003-04-15 07:03:11 51°14.47 2°43.68 264.9 15.5 258 15.7
2003-04-15 07:03:17 51°14.47 2°43.64 264.9 15.6 259 15.8
2003-04-15 07:03:21 51°14.46 2°43.62 265 15.6 258 15.9
2003-04-15 07:03:27 51°14.46 2°43.58 264.9 15.6 258 16
2003-04-15 07:03:33 51°14.45 2°43.53 264.6 15.6 258 16
2003-04-15 07:03:37 51°14.45 2°43.51 264.5 15.6 258 16
2003-04-15 07:03:41 51°14.44 2°43.48 265.1 15.6 258 15.7
2003-04-15 07:03:47 51°14.44 2°43.44 264.7 15.6 258 16
2003-04-15 07:03:51 51°14.44 2°43.41 265.2 15.6 258 16.1
2003-04-15 07:03:57 51°14.43 2°43.37 264.9 15.6 259 16.2
2003-04-15 07:04:01 51°14.43 2°43.35 265.1 15.6 258 16.1
2003-04-15 07:04:07 51°14.42 2°43.31 265 15.6 258 16.2
2003-04-15 07:04:11 51°14.42 2°43.28 264.9 15.6 258 16.2
2003-04-15 07:04:17 51°14.41 2°43.24 264.7 15.6 258 16.2
2003-04-15 07:04:21 51°14.41 2°43.21 264.9 15.6 258 16.3
2003-04-15 07:04:27 51°14.4 2°43.17 265.3 15.6 259 16.3
2003-04-15 07:04:31 51°14.4 2°43.14 265.3 15.6 259 16.3
2003-04-15 07:04:37 51°14.4 2°43.1 265.3 15.6 258 16.4
2003-04-15 07:04:41 51°14.39 2°43.08 264.9 15.6 258 16.5
2003-04-15 07:04:47 51°14.39 2°43.04 263.9 15.5 257 16.5
2003-04-15 07:04:53 51°14.38 2°43 261.6 15.5 256 16.5
2003-04-15 07:04:57 51°14.37 2°42.97 261.1 15.6 255 16.5
2003-04-15 07:05:01 51°14.37 2°42.94 259.9 15.6 254 16.5
2003-04-15 07:05:07 51°14.36 2°42.9 259 15.7 253 16.5
2003-04-15 07:05:11 51°14.36 2°42.88 258 15.7 252 16.5
2003-04-15 07:05:17 51°14.35 2°42.84 258 15.7 252 16.5
2003-04-15 07:05:23 51°14.34 2°42.8 257.1 15.7 252 16.6
2003-04-15 07:05:27 51°14.33 2°42.77 256.8 15.7 251 16.6
2003-04-15 07:05:31 51°14.33 2°42.75 256.9 15.7 251 16.6
2003-04-15 07:05:37 51°14.32 2°42.71 256.8 15.7 251 16.6
2003-04-15 07:05:41 51°14.31 2°42.68 256.7 15.7 251 16.6
2003-04-15 07:05:47 51°14.31 2°42.64 256.6 15.7 251 16.6
2003-04-15 07:05:51 51°14.3 2°42.61 256.3 15.7 251 16.6
2003-04-15 07:05:57 51°14.29 2°42.57 256.5 15.7 251 16.7
2003-04-15 07:06:03 51°14.28 2°42.54 256.8 15.7 251 16.6
2003-04-15 07:06:07 51°14.28 2°42.51 256.7 15.7 251 16.6
2003-04-15 07:06:11 51°14.27 2°42.48 256.3 15.7 251 16.7
2003-04-15 07:06:17 51°14.26 2°42.44 256.7 15.7 251 16.6
2003-04-15 07:06:21 51°14.26 2°42.42 256.5 15.8 251 16.6
2003-04-15 07:06:27 51°14.25 2°42.38 256.9 15.7 251 16.6
2003-04-15 07:06:33 51°14.24 2°42.34 257 15.7 251 16.6
2003-04-15 07:06:37 51°14.23 2°42.31 256.6 15.7 251 16.6
2003-04-15 07:06:41 51°14.23 2°42.29 256.6 15.7 251 16.6
2003-04-15 07:06:47 51°14.22 2°42.25 256.6 15.7 251 16.6
2003-04-15 07:06:51 51°14.21 2°42.22 256.9 15.7 251 16.6
2003-04-15 07:06:57 51°14.21 2°42.18 256.4 15.7 251 16.7
2003-04-15 07:07:03 51°14.2 2°42.14 257 15.7 251 16.7
2003-04-15 07:07:07 51°14.19 2°42.12 256.4 15.7 251 16.7
2003-04-15 07:07:11 51°14.19 2°42.09 256.9 15.7 251 16.8
2003-04-15 07:07:17 51°14.18 2°42.05 256.8 15.7 251 16.8
2003-04-15 07:07:21 51°14.17 2°42.02 256.6 15.7 251 16.8
2003-04-15 07:07:27 51°14.16 2°41.98 257.3 15.7 251 16.7
2003-04-15 07:07:31 51°14.16 2°41.96 256.8 15.7 251 16.9
2003-04-15 07:07:37 51°14.15 2°41.92 257 15.7 251 16.9
2003-04-15 07:07:43 51°14.14 2°41.88 256.9 15.7 251 16.8
2003-04-15 07:07:47 51°14.14 2°41.85 256.9 15.7 252 16.9
2003-04-15 07:07:51 51°14.13 2°41.83 256.4 15.7 251 16.9
2003-04-15 07:07:57 51°14.12 2°41.79 256.7 15.7 252 16.8
2003-04-15 07:08:01 51°14.12 2°41.76 256.8 15.6 251 16.8
2003-04-15 07:08:07 51°14.11 2°41.72 256.4 15.6 251 16.7
2003-04-15 07:08:13 51°14.1 2°41.68 257.2 15.6 251 16.8
2003-04-15 07:08:17 51°14.09 2°41.66 256.9 15.6 251 16.8
2003-04-15 07:08:21 51°14.09 2°41.63 256.9 15.6 251 16.7
2003-04-15 07:08:27 51°14.08 2°41.59 256.8 15.6 251 16.7
2003-04-15 07:08:31 51°14.08 2°41.56 256.9 15.6 252 16.7
2003-04-15 07:08:37 51°14.07 2°41.53 257.7 15.3 252 16.7
2003-04-15 07:08:43 51°14.06 2°41.49 257.8 14.5 252 16.6
2003-04-15 07:08:47 51°14.06 2°41.47 257.4 13.8 252 16.6
2003-04-15 07:08:53 51°14.05 2°41.44 256.7 12.6 252 16.6
2003-04-15 07:08:57 51°14.05 2°41.42 258.9 11.8 254 16.7
2003-04-15 07:09:01 51°14.05 2°41.4 267.5 10.6 261 16.7
2003-04-15 07:09:07 51°14.05 2°41.38 273.6 9.9 266 16.7
2003-04-15 07:09:11 51°14.05 2°41.36 283 9 274 16.7
2003-04-15 07:09:17 51°14.05 2°41.34 289.4 8.4 279 16.4
2003-04-15 07:09:21 51°14.05 2°41.33 298.2 7.7 286 16.3
2003-04-15 07:09:27 51°14.06 2°41.31 303.3 7.3 290 16.1
2003-04-15 07:09:31 51°14.06 2°41.3 310.2 6.7 296 15.9
2003-04-15 07:09:37 51°14.07 2°41.29 316.9 6.3 301 15.8
2003-04-15 07:09:41 51°14.07 2°41.28 323.3 5.8 307 15.9
2003-04-15 07:09:47 51°14.08 2°41.27 330 5.5 312 16
2003-04-15 07:09:53 51°14.08 2°41.27 336.7 5 319 16
2003-04-15 07:09:57 51°14.09 2°41.26 343 4.8 323 15.9
2003-04-15 07:10:03 51°14.09 2°41.26 349.1 4.4 330 15.8
2003-04-15 07:10:07 51°14.1 2°41.25 354.9 4.2 334 15.8
2003-04-15 07:10:11 51°14.1 2°41.25 1.4 4 341 15.6
2003-04-15 07:10:17 51°14.11 2°41.25 4.9 3.9 344 15.7
2003-04-15 07:10:23 51°14.12 2°41.25 8.7 3.8 349 15.6
2003-04-15 07:10:27 51°14.12 2°41.25 12.7 3.8 352 15.5
2003-04-15 07:10:33 51°14.13 2°41.25 16.2 3.7 357 15.4
2003-04-15 07:10:37 51°14.13 2°41.25 18.5 3.7   15.3
2003-04-15 07:10:41 51°14.13 2°41.25 20.9 3.6 3 15
2003-04-15 07:10:47 51°14.14 2°41.25 22.5 3.5 4 14.8
2003-04-15 07:10:51 51°14.14 2°41.25 24.3 3.2 6 14.7
2003-04-15 07:10:57 51°14.15 2°41.25 25.3 2.8 5 14.8
2003-04-15 07:11:01 51°14.15 2°41.25 27.2 2.1 5 14.5
2003-04-15 07:11:07 51°14.15 2°41.25 31.4 1.6 3 14.7
2003-04-15 07:11:13 51°14.15 2°41.25 36.7 0.9 356 14.9
2003-04-15 07:11:17 51°14.15 2°41.25 42 0.6 334 14.9
2003-04-15 07:11:21 51°14.15 2°41.25 46.9 0.4 293 14.9
2003-04-15 07:11:27 51°14.15 2°41.25 51.1 0.4 283 14.8
2003-04-15 07:11:33 51°14.15 2°41.25 54.4 0.3 275 14.8
2003-04-15 07:11:37 51°14.15 2°41.25 57.3 0.3 279 14.8
2003-04-15 07:11:43 51°14.15 2°41.25 59.5 0.2 276 14.8
2003-04-15 07:11:47 51°14.15 2°41.25 61.3 0.2 277 14.7
2003-04-15 07:11:51 51°14.15 2°41.25 62.7 0.1 271 14.7
2003-04-15 07:11:57 51°14.15 2°41.25 64.2 0.1 260 14.7
2003-04-15 07:12:03 51°14.15 2°41.25 65.6   188 14.7
2003-04-15 07:12:07 51°14.15 2°41.25 66.8 0.1 159 14.7
2003-04-15 07:12:11 51°14.15 2°41.25 67.9 0.1 144 14.7
2003-04-15 07:12:17 51°14.15 2°41.25 68.9 0.1 140 14.7
2003-04-15 07:12:23 51°14.15 2°41.25 69.7 0.2 135 14.7
2003-04-15 07:12:27 51°14.15 2°41.25 70.6 0.2 132 14.7
2003-04-15 07:12:31 51°14.15 2°41.25 71.1 0.3 129 14.6
2003-04-15 07:12:37 51°14.15 2°41.25 71.7 0.3 126 14.8
2003-04-15 07:12:41 51°14.15 2°41.25 72.5 0.4 125 14.7
2003-04-15 07:12:47 51°14.15 2°41.25 73 0.4 124 14.7
2003-04-15 07:12:53 51°14.15 2°41.25 73.5 0.4 121 14.8
2003-04-15 07:12:57 51°14.15 2°41.25 74 0.5 120 14.8
2003-04-15 07:13:01 51°14.15 2°41.25 74.7 0.5 120 14.8
2003-04-15 07:13:07 51°14.15 2°41.25 75.1 0.5 119 14.9
2003-04-15 07:13:13 51°14.15 2°41.25 75.4 0.5 118 14.9
2003-04-15 07:13:17 51°14.15 2°41.26 75.9 0.6 118 15
2003-04-15 07:13:23 51°14.15 2°41.26 76.2 0.6 118 15
2003-04-15 07:13:27 51°14.15 2°41.26 76.4 0.6 117 15
2003-04-15 07:13:33 51°14.15 2°41.26 76.7 0.7 116 15.1
2003-04-15 07:13:37 51°14.15 2°41.26 76.9 0.7 116 15.1
2003-04-15 07:13:41 51°14.15 2°41.26 77.1 0.7 116 15.2
2003-04-15 07:13:47 51°14.15 2°41.26 77.1 0.7 114 15.2
2003-04-15 07:13:51 51°14.14 2°41.26 77.2 0.7 112 15.2
2003-04-15 07:13:57 51°14.14 2°41.27 77.2 0.7 113 15.2
2003-04-15 07:14:03 51°14.14 2°41.27 77.2 0.7 113 15.2
2003-04-15 07:14:07 51°14.14 2°41.27 77.2 0.8 113 15.2
2003-04-15 07:14:11 51°14.14 2°41.27 77.1 0.8 111 15.3
2003-04-15 07:14:17 51°14.14 2°41.27 77 0.8 110 15.5
2003-04-15 07:14:21 51°14.14 2°41.27 76.9 0.8 109 15.5
2003-04-15 07:14:27 51°14.14 2°41.28 76.7 0.8 108 15.5
2003-04-15 07:14:33 51°14.14 2°41.28 76.4 0.8 105 15.5
2003-04-15 07:14:37 51°14.14 2°41.28 76.1 0.8 106 15.6
2003-04-15 07:14:43 51°14.14 2°41.28 75.8 0.8 105 15.5
2003-04-15 07:14:47 51°14.14 2°41.28 75.4 0.8 104 15.5
2003-04-15 07:14:51 51°14.14 2°41.28 75 0.8 102 15.6
2003-04-15 07:14:57 51°14.14 2°41.29 74.7 0.8 102 15.7
2003-04-15 07:15:01 51°14.14 2°41.29 74.4 0.8 102 15.7
2003-04-15 07:15:07 51°14.14 2°41.29 74 0.8 102 15.7
2003-04-15 07:15:13 51°14.14 2°41.29 74 0.8 101 15.7
2003-04-15 07:15:17 51°14.14 2°41.29 73.7 0.8 100 15.7
2003-04-15 07:15:21 51°14.14 2°41.3 73.5 0.9 100 15.8
2003-04-15 07:15:27 51°14.14 2°41.3 73.2 0.9 99 15.7
2003-04-15 07:15:31 51°14.14 2°41.3 72.9 0.9 99 15.7
2003-04-15 07:15:37 51°14.14 2°41.3 72.8 0.9 98 15.8
2003-04-15 07:15:43 51°14.14 2°41.3 72.8 0.9 98 15.8
2003-04-15 07:15:47 51°14.14 2°41.31 72.8 0.9 98 15.8
2003-04-15 07:15:53 51°14.14 2°41.31 72.9 0.9 98 15.8
2003-04-15 07:15:57 51°14.14 2°41.31 73.3 0.9 98 15.8
2003-04-15 07:16:01 51°14.14 2°41.31 73.5 0.9 97 15.8
2003-04-15 07:16:07 51°14.14 2°41.31 73.8 0.9 97 15.8
2003-04-15 07:16:11 51°14.14 2°41.32 74.1 1 99 15.9
2003-04-15 07:16:17 51°14.14 2°41.32 74.8 1 99 15.9
2003-04-15 07:16:21 51°14.14 2°41.32 75.4 1 101 15.8
2003-04-15 07:16:27 51°14.14 2°41.32 76 1 101 15.9
2003-04-15 07:16:31 51°14.14 2°41.32 76.9 1 102 15.9
2003-04-15 07:16:37 51°14.14 2°41.33 77.6 1 102 15.9
2003-04-15 07:16:41 51°14.14 2°41.33 78.3 1 104 15.9
2003-04-15 07:16:47 51°14.14 2°41.33 79.3 1 105 16
2003-04-15 07:16:53 51°14.13 2°41.33 80.2 1.1 107 15.9
2003-04-15 07:16:57 51°14.13 2°41.34 81 1.1 108 16
2003-04-15 07:17:01 51°14.13 2°41.34 82 1.1 110 16
2003-04-15 07:17:07 51°14.13 2°41.34 82.7 1.1 110 16
2003-04-15 07:17:11 51°14.13 2°41.34 83.5 1.2 112 15.9
2003-04-15 07:17:17 51°14.13 2°41.35 84.4 1.2 112 16
2003-04-15 07:17:23 51°14.13 2°41.35 85.3 1.2 112 16
2003-04-15 07:17:27 51°14.13 2°41.35 86 1.2 114 16
2003-04-15 07:17:31 51°14.13 2°41.35 86.9 1.2 115 16.1
2003-04-15 07:17:37 51°14.13 2°41.36 87.8 1.2 117 16.1
2003-04-15 07:17:41 51°14.13 2°41.36 88.8 1.3 117 16.1
2003-04-15 07:17:47 51°14.13 2°41.36 89.7 1.3 119 16.1
2003-04-15 07:17:51 51°14.13 2°41.36 90.7 1.3 121 16
2003-04-15 07:17:57 51°14.12 2°41.37 91.6 1.4 123 16.1
2003-04-15 07:18:01 51°14.12 2°41.37 92.8 1.4 124 16.1
2003-04-15 07:18:07 51°14.12 2°41.37 93.7 1.3 127 16.2
2003-04-15 07:18:11 51°14.12 2°41.37 94.7 1.3 130 16.2
2003-04-15 07:18:17 51°14.12 2°41.37 95.3 1.3 132 16.2
2003-04-15 07:18:21 51°14.12 2°41.38 96.2 1.3 134 16.2
2003-04-15 07:18:27 51°14.12 2°41.38 96.8 1.2 136 16.2
2003-04-15 07:18:33 51°14.12 2°41.38 97.3 1.2 139 16.2
2003-04-15 07:18:37 51°14.12 2°41.38 97.9 1.2 142 16.2
2003-04-15 07:18:43 51°14.11 2°41.38 98.2 1.2 144 16.3
2003-04-15 07:18:47 51°14.11 2°41.38 98.6 1.2 146 16.3
2003-04-15 07:18:51 51°14.11 2°41.39 98.9 1.1 149 16.3
2003-04-15 07:18:57 51°14.11 2°41.39 98.8 1.1 151 16.3
2003-04-15 07:19:03 51°14.11 2°41.39 98.8 1.1 153 16.3
2003-04-15 07:19:07 51°14.11 2°41.39 98.9 1.1 154 16.4
2003-04-15 07:19:11 51°14.11 2°41.39 98.7 1.1 156 16.4
2003-04-15 07:19:17 51°14.1 2°41.39 98.6 1.1 158 16.4
2003-04-15 07:19:23 51°14.1 2°41.39 98.3 1 161 16.5
2003-04-15 07:19:27 51°14.1 2°41.39 97.9 1 162 16.5
2003-04-15 07:19:31 51°14.1 2°41.39 97.2 1 165 16.5
2003-04-15 07:19:37 51°14.1 2°41.39 96.7 1 166 16.5
2003-04-15 07:19:41 51°14.1 2°41.39 96 0.9 168 16.5
2003-04-15 07:19:47 51°14.1 2°41.39 95.2 0.9 170 16.6
2003-04-15 07:19:53 51°14.1 2°41.39 94.3 0.9 172 16.5
2003-04-15 07:19:57 51°14.09 2°41.39 93.4 0.9 173 16.5
2003-04-15 07:20:01 51°14.09 2°41.39 92.6 0.8 177 16.6
2003-04-15 07:20:07 51°14.09 2°41.39 91.6 0.8 179 16.5
2003-04-15 07:20:13 51°14.09 2°41.39 90.7 0.8 182 16.6
2003-04-15 07:20:17 51°14.09 2°41.39 89.8 0.8 185 16.7
2003-04-15 07:20:23 51°14.09 2°41.39 88.9 0.8 188 16.6
2003-04-15 07:20:27 51°14.09 2°41.39 88 0.8 190 16.6
2003-04-15 07:20:31 51°14.09 2°41.39 87 0.8 193 16.6
2003-04-15 07:20:37 51°14.09 2°41.39 85.9 0.8 196 16.6
2003-04-15 07:20:41 51°14.08 2°41.39 84.9 0.8 201 16.7
2003-04-15 07:20:47 51°14.08 2°41.39 83.9 0.8 202 16.7
2003-04-15 07:20:51 51°14.08 2°41.39 83 0.8 204 16.7
2003-04-15 07:20:57 51°14.08 2°41.39 82 0.8 204 16.7
2003-04-15 07:21:03 51°14.08 2°41.39 81.2 0.8 207 16.7
2003-04-15 07:21:07 51°14.08 2°41.39 80.1 0.8 208 16.7
2003-04-15 07:21:11 51°14.08 2°41.39 79.3 0.8 210 16.7
2003-04-15 07:21:17 51°14.08 2°41.38 78.3 0.8 212 16.8
2003-04-15 07:21:21 51°14.08 2°41.38 77.6 0.8 214 16.8
2003-04-15 07:21:27 51°14.08 2°41.38 76.8 0.8 217 16.8
2003-04-15 07:21:33 51°14.07 2°41.38 75.9 0.8 219 16.8
2003-04-15 07:21:37 51°14.07 2°41.38 75 0.8 220 16.8
2003-04-15 07:21:41 51°14.07 2°41.38 74 0.8 222 16.8
2003-04-15 07:21:47 51°14.07 2°41.38 73.3 0.8 224 16.8
2003-04-15 07:21:51 51°14.07 2°41.38 72.3 0.9 227 16.8
2003-04-15 07:21:57 51°14.07 2°41.37 71.6 0.9 227 16.8
2003-04-15 07:22:03 51°14.07 2°41.37 70.4 0.9 229 16.8
2003-04-15 07:22:07 51°14.07 2°41.37 69.5 0.9 229 16.8
2003-04-15 07:22:13 51°14.07 2°41.37 68.4 0.9 232 16.8
2003-04-15 07:22:17 51°14.07 2°41.37 67.6 1 232 16.8
2003-04-15 07:22:21 51°14.07 2°41.37 66.5 1 233 16.8
2003-04-15 07:22:27 51°14.06 2°41.36 65.4 1 233 16.7
2003-04-15 07:22:31 51°14.06 2°41.36 64.3 1 234 16.7
2003-04-15 07:22:37 51°14.06 2°41.36 63 1.1 235 16.7
2003-04-15 07:22:43 51°14.06 2°41.36 61.8 1.1 236 16.7
2003-04-15 07:22:47 51°14.06 2°41.36 60.7 1.1 237 16.7
2003-04-15 07:22:53 51°14.06 2°41.35 59.5 1.1 238 16.7
2003-04-15 07:22:57 51°14.06 2°41.35 58.5 1.1 238 16.7
2003-04-15 07:23:01 51°14.06 2°41.35 57 1.2 238 16.7
2003-04-15 07:23:07 51°14.06 2°41.35 55.8 1.2 239 16.7
2003-04-15 07:23:13 51°14.06 2°41.34 54.5 1.2 240 16.7
2003-04-15 07:23:17 51°14.06 2°41.34 53.4 1.2 240 16.7
2003-04-15 07:23:23 51°14.06 2°41.34 52.2 1.3 240 16.7
2003-04-15 07:23:27 51°14.05 2°41.34 50.8 1.3 240 16.6
2003-04-15 07:23:31 51°14.05 2°41.34 49.4 1.3 240 16.5
2003-04-15 07:23:37 51°14.05 2°41.33 48.6 1.3 240 16.5
2003-04-15 07:23:43 51°14.05 2°41.33 47.1 1.3 240 16.6
2003-04-15 07:23:47 51°14.05 2°41.33 45.9 1.3 239 16.5
2003-04-15 07:23:53 51°14.05 2°41.32 44.7 1.3 239 16.4
2003-04-15 07:23:57 51°14.05 2°41.32 43.4 1.4 239 16.4
2003-04-15 07:24:03 51°14.05 2°41.32 42 1.4 240 16.3
2003-04-15 07:24:07 51°14.05 2°41.32 41.2 1.4 239 16.3
2003-04-15 07:24:11 51°14.05 2°41.31 39.9 1.4 240 16.3
2003-04-15 07:24:17 51°14.05 2°41.31 39.1 1.4 240 16.2
2003-04-15 07:24:23 51°14.04 2°41.31 37.7 1.4 240 16.4
2003-04-15 07:24:27 51°14.04 2°41.31 36.6 1.4 239 16.4
2003-04-15 07:24:33 51°14.04 2°41.3 35.5 1.4 239 16.4
2003-04-15 07:24:37 51°14.04 2°41.3 34.6 1.5 239 16.5
2003-04-15 07:24:41 51°14.04 2°41.3 33.3 1.5 239 16.5
2003-04-15 07:24:47 51°14.04 2°41.3 32.1 1.5 239 16.4
2003-04-15 07:24:53 51°14.04 2°41.29 31.2 1.4 240 16.4
2003-04-15 07:24:57 51°14.04 2°41.29 30.3 1.4 240 16.5
2003-04-15 07:25:03 51°14.04 2°41.29 28.9 1.4 240 16.4
2003-04-15 07:25:07 51°14.04 2°41.28 27.6 1.4 242 16.4
2003-04-15 07:25:11 51°14.03 2°41.28 26.4 1.3 243 16.5
2003-04-15 07:25:17 51°14.03 2°41.28 25.6 1.3 245 16.4
2003-04-15 07:25:23 51°14.03 2°41.28 24.4 1.3 246 16.4
2003-04-15 07:25:27 51°14.03 2°41.27 23.6 1.3 247 16.4
2003-04-15 07:25:33 51°14.03 2°41.27 22.5 1.2 249 16.4
2003-04-15 07:25:37 51°14.03 2°41.27 21.7 1.2 250 16.4
2003-04-15 07:25:43 51°14.03 2°41.27 20.8 1.2 252 16.3
2003-04-15 07:25:47 51°14.03 2°41.26 20.2 1.1 254 16.4
2003-04-15 07:25:51 51°14.03 2°41.26 19.5 1.1 257 16.3
2003-04-15 07:25:57 51°14.03 2°41.26 18.8 1.1 258 16.2
2003-04-15 07:26:01 51°14.03 2°41.26 18.4 1.1 261 16.3
2003-04-15 07:26:07 51°14.03 2°41.25 18.1 1.1 263 16.4
2003-04-15 07:26:13 51°14.03 2°41.25 17.9 1 265 16.3
2003-04-15 07:26:17 51°14.03 2°41.25 17.8 1 266 16.3
2003-04-15 07:26:21 51°14.03 2°41.25 17.8 1 269 16.3
2003-04-15 07:26:27 51°14.03 2°41.25 17.8 1 270 16.3
2003-04-15 07:26:33 51°14.03 2°41.24 17.9 1 273 16.3
2003-04-15 07:26:37 51°14.03 2°41.24 18.1 1 274 16.3
2003-04-15 07:26:43 51°14.03 2°41.24 18.5 1 277 16.3
2003-04-15 07:26:47 51°14.03 2°41.24 18.8 1 278 16.3
2003-04-15 07:26:53 51°14.03 2°41.24 19.2 0.9 280 16.3
2003-04-15 07:26:57 51°14.03 2°41.23 19.7 0.9 281 16.3
2003-04-15 07:27:01 51°14.03 2°41.23 20.2 0.9 284 16.3
2003-04-15 07:27:07 51°14.03 2°41.23 20.8 0.9 285 16.2
2003-04-15 07:27:11 51°14.03 2°41.23 21.6 0.9 288 16.3
2003-04-15 07:27:17 51°14.03 2°41.23 22.1 0.8 289 16.2
2003-04-15 07:27:23 51°14.03 2°41.22 22.7 0.8 292 16.2
2003-04-15 07:27:27 51°14.03 2°41.22 23.6 0.8 293 16.2
2003-04-15 07:27:31 51°14.03 2°41.22 24.2 0.8 295 16.2
2003-04-15 07:27:37 51°14.03 2°41.22 24.9 0.8 296 16.2
2003-04-15 07:27:41 51°14.03 2°41.22 25.8 0.8 298 16.2
2003-04-15 07:27:47 51°14.04 2°41.22 26.5 0.7 300 16.2
2003-04-15 07:27:53 51°14.04 2°41.22 27.2 0.7 302 16.2
2003-04-15 07:27:57 51°14.04 2°41.21 27.9 0.7 303 16.2
2003-04-15 07:28:01 51°14.04 2°41.21 28.7 0.7 305 16.2
2003-04-15 07:28:07 51°14.04 2°41.21 29.5 0.7 306 16.2
2003-04-15 07:28:11 51°14.04 2°41.21 30.2 0.7 309 16.2
2003-04-15 07:28:17 51°14.04 2°41.21 30.7 0.7 311 16.2
2003-04-15 07:28:21 51°14.04 2°41.21 31.5 0.7 313 16.2
2003-04-15 07:28:27 51°14.04 2°41.21 31.7 0.7 314 16.2
2003-04-15 07:28:33 51°14.04 2°41.21 32.2 0.7 315 16.2
2003-04-15 07:28:37 51°14.04 2°41.21 32.6 0.7 315 16.1
2003-04-15 07:28:41 51°14.04 2°41.2 32.9 0.6 318 16.1
2003-04-15 07:28:47 51°14.04 2°41.2 33.2 0.6 320 16.1
2003-04-15 07:28:51 51°14.04 2°41.2 33.4 0.6 322 16.2
2003-04-15 07:28:57 51°14.04 2°41.2 33.8 0.6 323 16.2
2003-04-15 07:29:03 51°14.04 2°41.2 34.1 0.6 325 16.2
2003-04-15 07:29:07 51°14.05 2°41.2 34.5 0.6 326 16.2
2003-04-15 07:29:13 51°14.05 2°41.2 34.8 0.6 329 16.1
2003-04-15 07:29:17 51°14.05 2°41.2 35.3 0.6 330 16.1
2003-04-15 07:29:21 51°14.05 2°41.2 35.7 0.6 332 16.1
2003-04-15 07:29:27 51°14.05 2°41.2 36.1 0.6 333 16.1
2003-04-15 07:29:31 51°14.05 2°41.2 36.4 0.6 337 16.1
2003-04-15 07:29:37 51°14.05 2°41.2 36.7 0.6 337 16.1
2003-04-15 07:29:43 51°14.05 2°41.2 37 0.6 338 16.1
2003-04-15 07:29:47 51°14.05 2°41.2 37 0.6 339 16.1
2003-04-15 07:29:51 51°14.05 2°41.2 37.1 0.6 340 16.1
2003-04-15 07:29:57 51°14.05 2°41.2 37.2 0.6 341 16.1
2003-04-15 07:30:01 51°14.05 2°41.19 37.2 0.6 343 16.1
2003-04-15 07:30:07 51°14.05 2°41.19 37.2 0.6 345 16.1
2003-04-15 07:30:13 51°14.06 2°41.19 37.2 0.6 346 16.1
2003-04-15 07:30:17 51°14.06 2°41.19 37.1 0.6 346 16.1
2003-04-15 07:30:23 51°14.06 2°41.19 37.1 0.6 346 16
2003-04-15 07:30:27 51°14.06 2°41.19 37.2 0.6 347 16.1
2003-04-15 07:30:31 51°14.06 2°41.19 37.2 0.7 350 16.1
2003-04-15 07:30:37 51°14.06 2°41.19 37.3 0.7 350 16
2003-04-15 07:30:43 51°14.06 2°41.19 37.5 0.7 351 16.1
2003-04-15 07:30:47 51°14.06 2°41.19 37.6 0.7 352 16
2003-04-15 07:30:53 51°14.06 2°41.19 37.7 0.7 353 16
2003-04-15 07:30:57 51°14.06 2°41.19 37.8 0.7 353 15.9
2003-04-15 07:31:01 51°14.06 2°41.19 37.9 0.7 354 15.9
2003-04-15 07:31:07 51°14.07 2°41.19 38 0.7 354 15.9
2003-04-15 07:31:11 51°14.07 2°41.19 38 0.7 356 16
2003-04-15 07:31:17 51°14.07 2°41.19 37.8 0.7 356 15.9
2003-04-15 07:31:23 51°14.07 2°41.19 37.4 0.7 356 16
2003-04-15 07:31:27 51°14.07 2°41.19 36.9 0.7 353 15.9
2003-04-15 07:31:33 51°14.07 2°41.19 36.3 0.7 353 15.9
2003-04-15 07:31:37 51°14.07 2°41.19 35.7 0.7 354 15.9
2003-04-15 07:31:41 51°14.07 2°41.19 35.2 0.8 355 15.9
2003-04-15 07:31:47 51°14.07 2°41.19 34.6 0.8 354 15.9
2003-04-15 07:31:53 51°14.07 2°41.19 33.9 0.8 354 15.9
2003-04-15 07:31:57 51°14.08 2°41.19 33.3 0.8 353 15.9
2003-04-15 07:32:03 51°14.08 2°41.19 32.6 0.8 352 15.8
2003-04-15 07:32:07 51°14.08 2°41.19 31.9 0.8 351 15.9
2003-04-15 07:32:11 51°14.08 2°41.19 31.5 0.9 353 15.8
2003-04-15 07:32:17 51°14.08 2°41.19 31.3 0.9 353 15.8
2003-04-15 07:32:23 51°14.08 2°41.19 31.2 0.9 353 15.8
2003-04-15 07:32:27 51°14.08 2°41.19 31.6 0.9 354 15.8
2003-04-15 07:32:33 51°14.08 2°41.19 32 0.9 355 15.9
2003-04-15 07:32:37 51°14.09 2°41.19 32.6 0.9 355 15.9
2003-04-15 07:32:41 51°14.09 2°41.19 33.2 0.9 356 15.7
2003-04-15 07:32:47 51°14.09 2°41.19 33.8 0.9 356 15.7
2003-04-15 07:32:51 51°14.09 2°41.19 34.5 0.8 359 15.7
2003-04-15 07:32:57 51°14.09 2°41.19 35.3 0.8   15.7
2003-04-15 07:33:01 51°14.09 2°41.19 36.1 0.8 2 15.7
2003-04-15 07:33:07 51°14.09 2°41.19 36.9 0.8 4 15.7
2003-04-15 07:33:13 51°14.09 2°41.19 37.8 0.8 5 15.7
2003-04-15 07:33:17 51°14.09 2°41.19 38.9 0.8 7 15.7
2003-04-15 07:33:21 51°14.09 2°41.19 39.8 0.8 8 15.6
2003-04-15 07:33:27 51°14.1 2°41.19 40.7 0.8 9 15.6
2003-04-15 07:33:33 51°14.1 2°41.19 41.6 0.8 11 15.6
2003-04-15 07:33:37 51°14.1 2°41.19 42.8 0.7 12 15.5
2003-04-15 07:33:43 51°14.1 2°41.19 44.2 0.7 16 15.6
2003-04-15 07:33:47 51°14.1 2°41.19 46 0.7 19 15.6
2003-04-15 07:33:51 51°14.1 2°41.19 47.9 0.6 26 15.5
2003-04-15 07:33:57 51°14.1 2°41.19 49.8 0.6 30 15.6
2003-04-15 07:34:03 51°14.1 2°41.19 51.8 0.6 38 15.6
2003-04-15 07:34:07 51°14.1 2°41.19 53.9 0.6 42 15.5
2003-04-15 07:34:11 51°14.1 2°41.2 55.9 0.6 48 15.6
2003-04-15 07:34:17 51°14.1 2°41.2 58.1 0.5 55 15.7
2003-04-15 07:34:23 51°14.1 2°41.2 60.5 0.5 65 15.7
2003-04-15 07:34:27 51°14.1 2°41.2 62.7 0.5 69 15.8
2003-04-15 07:34:31 51°14.1 2°41.2 65 0.6 77 15.8
2003-04-15 07:34:37 51°14.1 2°41.2 67.3 0.6 83 15.8
2003-04-15 07:34:41 51°14.1 2°41.2 69.4 0.6 89 15.8
2003-04-15 07:34:47 51°14.1 2°41.2 71.7 0.6 93 15.7
2003-04-15 07:34:53 51°14.1 2°41.21 73.8 0.6 100 15.8
2003-04-15 07:34:57 51°14.1 2°41.21 76.2 0.7 105 15.7
2003-04-15 07:35:01 51°14.1 2°41.21 78.3 0.7 110 15.6
2003-04-15 07:35:07 51°14.1 2°41.21 80.5 0.7 114 15.6
2003-04-15 07:35:13 51°14.1 2°41.21 82.6 0.8 118 15.6
2003-04-15 07:35:17 51°14.1 2°41.21 84.9 0.8 121 15.6
2003-04-15 07:35:23 51°14.1 2°41.21 87.2 0.8 125 15.7
2003-04-15 07:35:27 51°14.1 2°41.22 89.7 0.9 129 15.7
2003-04-15 07:35:33 51°14.1 2°41.22 91.9 0.9 133 15.7
2003-04-15 07:35:37 51°14.1 2°41.22 94.5 0.9 136 15.7
2003-04-15 07:35:41 51°14.1 2°41.22 97.2 1 139 15.8
2003-04-15 07:35:47 51°14.1 2°41.22 100 1 141 15.8
2003-04-15 07:35:51 51°14.09 2°41.22 102.6 1.1 144 15.8
2003-04-15 07:35:57 51°14.09 2°41.22 105.1 1.2 147 15.9
2003-04-15 07:36:03 51°14.09 2°41.23 107.9 1.2 150 15.8
2003-04-15 07:36:07 51°14.09 2°41.23 110.5 1.3 152 15.8
2003-04-15 07:36:11 51°14.09 2°41.23 113.2 1.3 155 15.9
2003-04-15 07:36:17 51°14.09 2°41.23 116.2 1.4 157 15.8
2003-04-15 07:36:21 51°14.08 2°41.23 119.2 1.4 159 15.8
2003-04-15 07:36:27 51°14.08 2°41.23 122.2 1.5 162 15.9
2003-04-15 07:36:33 51°14.08 2°41.23 125.1 1.6 165 16
2003-04-15 07:36:37 51°14.08 2°41.23 128.2 1.6 167 16.1
2003-04-15 07:36:43 51°14.08 2°41.23 131.3 1.7 169 15.9
2003-04-15 07:36:47 51°14.07 2°41.23 134.2 1.7 171 16.2
2003-04-15 07:36:51 51°14.07 2°41.23 137.1 1.7 173 16.1
2003-04-15 07:36:57 51°14.07 2°41.24 140 1.8 174 16.2
2003-04-15 07:37:03 51°14.07 2°41.24 142.5 1.8 176 16.2
2003-04-15 07:37:07 51°14.06 2°41.24 145.3 1.9 177 16.3
2003-04-15 07:37:13 51°14.06 2°41.24 148 1.9 180 16.2
2003-04-15 07:37:17 51°14.06 2°41.24 150.7 2 181 16.2
2003-04-15 07:37:21 51°14.06 2°41.24 153.6 2 184 16.2
2003-04-15 07:37:27 51°14.05 2°41.23 156.6 2.1 185 16.3
2003-04-15 07:37:31 51°14.05 2°41.23 159.5 2.1 187 16.3
2003-04-15 07:37:37 51°14.05 2°41.23 162.2 2.1 188 16.2
2003-04-15 07:37:43 51°14.04 2°41.23 164.9 2.2 190 16.4
2003-04-15 07:37:47 51°14.04 2°41.23 167.6 2.2 191 16.3
2003-04-15 07:37:53 51°14.04 2°41.23 170.4 2.3 193 16.4
2003-04-15 07:37:57 51°14.03 2°41.23 173 2.3 194 16.3
2003-04-15 07:38:01 51°14.03 2°41.23 175.6 2.3 196 16.4
2003-04-15 07:38:07 51°14.03 2°41.23 178.3 2.4 196 16.4
2003-04-15 07:38:13 51°14.02 2°41.22 180.9 2.4 199 16.4
2003-04-15 07:38:17 51°14.02 2°41.22 183.3 2.5 200 16.4
2003-04-15 07:38:23 51°14.02 2°41.22 185.8 2.5 202 16.4
2003-04-15 07:38:27 51°14.01 2°41.22 188.3 2.5 202 16.5
2003-04-15 07:38:31 51°14.01 2°41.22 190.6 2.6 204 16.5
2003-04-15 07:38:37 51°14.01 2°41.21 192.8 2.6 205 16.5
2003-04-15 07:38:43 51°14 2°41.21 194.7 2.6 206 16.5
2003-04-15 07:38:47 51°14 2°41.21 196.2 2.7 207 16.5
2003-04-15 07:38:53 51°14 2°41.2 197.7 2.7 208 16.5
2003-04-15 07:38:57 51°13.99 2°41.2 199 2.7 208 16.5
2003-04-15 07:39:03 51°13.99 2°41.2 200.3 2.8 209 16.5
2003-04-15 07:39:07 51°13.99 2°41.2 201.5 2.8 210 16.6
2003-04-15 07:39:11 51°13.99 2°41.19 202.6 2.8 210 16.6
2003-04-15 07:39:17 51°13.98 2°41.19 203.7 2.8 211 16.6
2003-04-15 07:39:23 51°13.98 2°41.18 204.7 2.9 212 16.6
2003-04-15 07:39:27 51°13.97 2°41.18 205.7 2.9 213 16.6
2003-04-15 07:39:33 51°13.97 2°41.18 206.6 2.9 213 16.8
2003-04-15 07:39:37 51°13.97 2°41.17 207.3 2.9 213 16.5
2003-04-15 07:39:41 51°13.97 2°41.17 208.3 2.9 214 16.7
2003-04-15 07:39:47 51°13.96 2°41.17 209 2.9 214 16.7
2003-04-15 07:39:53 51°13.96 2°41.16 209.6 3 215 16.6
2003-04-15 07:39:57 51°13.95 2°41.16 210.3 3 215 16.7
2003-04-15 07:40:03 51°13.95 2°41.16 210.9 3 215 16.7
2003-04-15 07:40:07 51°13.95 2°41.15 211.5 3 216 16.5
2003-04-15 07:40:13 51°13.94 2°41.15 212 3 217 16.7
2003-04-15 07:40:17 51°13.94 2°41.14 212.6 3 217 16.7
2003-04-15 07:40:21 51°13.94 2°41.14 213.3 3 217 16.7